sensor_id;sensor_type;location;lat;lon;timestamp;temperature;humidity
7129;DHT22;3606;52.930;8.644;2023-08-06T00:00:10;14.00;99.90
7129;DHT22;3606;52.930;8.644;2023-08-06T00:02:36;13.90;99.90
7129;DHT22;3606;52.930;8.644;2023-08-06T00:05:02;14.00;99.90
7129;DHT22;3606;52.930;8.644;2023-08-06T00:07:28;13.90;99.90
7129;DHT22;3606;52.930;8.644;2023-08-06T00:09:53;13.90;99.90
7129;DHT22;3606;52.930;8.644;2023-08-06T00:12:19;14.00;99.90
7129;DHT22;3606;52.930;8.644;2023-08-06T00:14:44;14.00;99.90
7129;DHT22;3606;52.930;8.644;2023-08-06T00:17:10;14.00;99.90
7129;DHT22;3606;52.930;8.644;2023-08-06T00:19:36;13.90;99.90
7129;DHT22;3606;52.930;8.644;2023-08-06T00:22:01;14.00;99.90
7129;DHT22;3606;52.930;8.644;2023-08-06T00:24:27;14.00;99.90
7129;DHT22;3606;52.930;8.644;2023-08-06T00:26:53;14.10;99.90
7129;DHT22;3606;52.930;8.644;2023-08-06T00:29:19;14.00;99.90
7129;DHT22;3606;52.930;8.644;2023-08-06T00:31:44;13.90;99.90
7129;DHT22;3606;52.930;8.644;2023-08-06T00:34:10;14.00;99.90
7129;DHT22;3606;52.930;8.644;2023-08-06T00:36:35;13.90;99.90
7129;DHT22;3606;52.930;8.644;2023-08-06T00:39:01;13.90;99.90
7129;DHT22;3606;52.930;8.644;2023-08-06T00:41:26;14.00;99.90
7129;DHT22;3606;52.930;8.644;2023-08-06T00:43:52;13.90;99.90
7129;DHT22;3606;52.930;8.644;2023-08-06T00:46:18;14.00;99.90
7129;DHT22;3606;52.930;8.644;2023-08-06T00:48:44;13.90;99.90
7129;DHT22;3606;52.930;8.644;2023-08-06T00:51:10;13.80;99.90
7129;DHT22;3606;52.930;8.644;2023-08-06T00:53:38;13.90;99.90
7129;DHT22;3606;52.930;8.644;2023-08-06T00:56:04;13.80;99.90
7129;DHT22;3606;52.930;8.644;2023-08-06T00:58:30;13.90;99.90
7129;DHT22;3606;52.930;8.644;2023-08-06T01:00:56;14.00;99.90
7129;DHT22;3606;52.930;8.644;2023-08-06T01:03:22;14.00;99.90
7129;DHT22;3606;52.930;8.644;2023-08-06T01:05:48;13.90;99.90
7129;DHT22;3606;52.930;8.644;2023-08-06T01:08:45;13.90;99.90
7129;DHT22;3606;52.930;8.644;2023-08-06T01:13:54;14.00;99.90
7129;DHT22;3606;52.930;8.644;2023-08-06T01:16:24;14.00;99.90
7129;DHT22;3606;52.930;8.644;2023-08-06T01:18:50;14.00;99.90
7129;DHT22;3606;52.930;8.644;2023-08-06T01:21:16;14.10;99.90
7129;DHT22;3606;52.930;8.644;2023-08-06T01:23:43;14.00;99.90
7129;DHT22;3606;52.930;8.644;2023-08-06T01:31:41;14.00;99.90
7129;DHT22;3606;52.930;8.644;2023-08-06T01:34:13;14.00;99.90
7129;DHT22;3606;52.930;8.644;2023-08-06T01:36:40;14.00;99.90
7129;DHT22;3606;52.930;8.644;2023-08-06T01:39:07;14.00;99.90
7129;DHT22;3606;52.930;8.644;2023-08-06T01:41:32;14.00;99.90
7129;DHT22;3606;52.930;8.644;2023-08-06T01:43:58;14.00;99.90
7129;DHT22;3606;52.930;8.644;2023-08-06T01:46:23;14.00;99.90
7129;DHT22;3606;52.930;8.644;2023-08-06T01:48:49;14.00;99.90
7129;DHT22;3606;52.930;8.644;2023-08-06T01:51:14;14.00;99.90
7129;DHT22;3606;52.930;8.644;2023-08-06T01:53:40;14.00;99.90
7129;DHT22;3606;52.930;8.644;2023-08-06T01:56:06;14.00;99.90
7129;DHT22;3606;52.930;8.644;2023-08-06T01:58:31;14.00;99.90
7129;DHT22;3606;52.930;8.644;2023-08-06T02:00:57;13.90;99.90
7129;DHT22;3606;52.930;8.644;2023-08-06T02:03:22;13.90;99.90
7129;DHT22;3606;52.930;8.644;2023-08-06T02:05:48;13.80;99.90
7129;DHT22;3606;52.930;8.644;2023-08-06T02:08:14;14.00;99.90
7129;DHT22;3606;52.930;8.644;2023-08-06T02:10:39;14.00;99.90
7129;DHT22;3606;52.930;8.644;2023-08-06T02:13:05;14.00;99.90
7129;DHT22;3606;52.930;8.644;2023-08-06T02:15:30;13.90;99.90
7129;DHT22;3606;52.930;8.644;2023-08-06T02:17:56;14.00;99.90
7129;DHT22;3606;52.930;8.644;2023-08-06T02:20:21;14.00;99.90
7129;DHT22;3606;52.930;8.644;2023-08-06T02:22:47;14.00;99.90
7129;DHT22;3606;52.930;8.644;2023-08-06T02:25:13;13.90;99.90
7129;DHT22;3606;52.930;8.644;2023-08-06T02:27:38;13.80;99.90
7129;DHT22;3606;52.930;8.644;2023-08-06T02:30:05;13.90;99.90
7129;DHT22;3606;52.930;8.644;2023-08-06T02:32:30;13.80;99.90
7129;DHT22;3606;52.930;8.644;2023-08-06T02:34:57;13.90;99.90
7129;DHT22;3606;52.930;8.644;2023-08-06T02:37:23;13.90;99.90
7129;DHT22;3606;52.930;8.644;2023-08-06T02:39:48;13.80;99.90
7129;DHT22;3606;52.930;8.644;2023-08-06T02:42:14;13.80;99.90
7129;DHT22;3606;52.930;8.644;2023-08-06T02:44:40;13.80;99.90
7129;DHT22;3606;52.930;8.644;2023-08-06T02:47:06;13.70;99.90
7129;DHT22;3606;52.930;8.644;2023-08-06T02:49:31;13.70;99.90
7129;DHT22;3606;52.930;8.644;2023-08-06T02:51:57;13.70;99.90
7129;DHT22;3606;52.930;8.644;2023-08-06T02:54:23;13.70;99.90
7129;DHT22;3606;52.930;8.644;2023-08-06T02:56:48;13.70;99.90
7129;DHT22;3606;52.930;8.644;2023-08-06T02:59:14;13.80;99.90
7129;DHT22;3606;52.930;8.644;2023-08-06T03:01:39;13.70;99.90
7129;DHT22;3606;52.930;8.644;2023-08-06T03:04:05;13.70;99.90
7129;DHT22;3606;52.930;8.644;2023-08-06T03:06:31;13.70;99.90
7129;DHT22;3606;52.930;8.644;2023-08-06T03:08:57;13.60;99.90
7129;DHT22;3606;52.930;8.644;2023-08-06T03:11:23;13.70;99.90
7129;DHT22;3606;52.930;8.644;2023-08-06T03:13:48;13.60;99.90
7129;DHT22;3606;52.930;8.644;2023-08-06T03:16:14;13.70;99.90
7129;DHT22;3606;52.930;8.644;2023-08-06T03:18:40;13.70;99.90
7129;DHT22;3606;52.930;8.644;2023-08-06T03:21:06;13.70;99.90
7129;DHT22;3606;52.930;8.644;2023-08-06T03:23:31;13.60;99.90
7129;DHT22;3606;52.930;8.644;2023-08-06T03:26:06;13.60;99.90
7129;DHT22;3606;52.930;8.644;2023-08-06T03:28:32;13.60;99.90
7129;DHT22;3606;52.930;8.644;2023-08-06T03:31:01;13.60;99.90
7129;DHT22;3606;52.930;8.644;2023-08-06T03:33:27;13.60;99.90
7129;DHT22;3606;52.930;8.644;2023-08-06T03:35:53;13.70;99.90
7129;DHT22;3606;52.930;8.644;2023-08-06T03:38:18;13.70;99.90
7129;DHT22;3606;52.930;8.644;2023-08-06T03:40:44;13.60;99.90
7129;DHT22;3606;52.930;8.644;2023-08-06T03:43:09;13.70;99.90
7129;DHT22;3606;52.930;8.644;2023-08-06T03:45:35;13.60;99.90
7129;DHT22;3606;52.930;8.644;2023-08-06T03:48:01;13.60;99.90
7129;DHT22;3606;52.930;8.644;2023-08-06T03:50:26;13.60;99.90
7129;DHT22;3606;52.930;8.644;2023-08-06T03:52:52;13.70;99.90
7129;DHT22;3606;52.930;8.644;2023-08-06T03:55:17;13.70;99.90
7129;DHT22;3606;52.930;8.644;2023-08-06T03:57:43;13.60;99.90
7129;DHT22;3606;52.930;8.644;2023-08-06T04:00:09;13.50;99.90
7129;DHT22;3606;52.930;8.644;2023-08-06T04:02:34;13.60;99.90
7129;DHT22;3606;52.930;8.644;2023-08-06T04:05:01;13.70;99.90
7129;DHT22;3606;52.930;8.644;2023-08-06T04:07:26;13.70;99.90
7129;DHT22;3606;52.930;8.644;2023-08-06T04:09:53;13.70;99.90
7129;DHT22;3606;52.930;8.644;2023-08-06T04:12:19;13.70;99.90
7129;DHT22;3606;52.930;8.644;2023-08-06T04:14:45;13.70;99.90
7129;DHT22;3606;52.930;8.644;2023-08-06T04:17:10;13.80;99.90
7129;DHT22;3606;52.930;8.644;2023-08-06T04:19:36;13.80;99.90
7129;DHT22;3606;52.930;8.644;2023-08-06T04:22:01;13.90;99.90
7129;DHT22;3606;52.930;8.644;2023-08-06T04:24:27;13.90;99.90
7129;DHT22;3606;52.930;8.644;2023-08-06T04:26:52;13.90;99.90
7129;DHT22;3606;52.930;8.644;2023-08-06T04:29:18;13.90;99.90
7129;DHT22;3606;52.930;8.644;2023-08-06T04:31:43;14.00;99.90
7129;DHT22;3606;52.930;8.644;2023-08-06T04:34:09;14.00;99.90
7129;DHT22;3606;52.930;8.644;2023-08-06T04:36:35;13.90;99.90
7129;DHT22;3606;52.930;8.644;2023-08-06T04:39:00;13.90;99.90
7129;DHT22;3606;52.930;8.644;2023-08-06T04:41:26;13.80;99.90
7129;DHT22;3606;52.930;8.644;2023-08-06T04:43:51;13.80;99.90
7129;DHT22;3606;52.930;8.644;2023-08-06T04:46:17;13.70;99.90
7129;DHT22;3606;52.930;8.644;2023-08-06T04:48:42;13.80;99.90
7129;DHT22;3606;52.930;8.644;2023-08-06T04:51:08;13.90;99.90
7129;DHT22;3606;52.930;8.644;2023-08-06T04:53:33;13.80;99.90
7129;DHT22;3606;52.930;8.644;2023-08-06T04:55:59;14.00;99.90
7129;DHT22;3606;52.930;8.644;2023-08-06T04:58:24;14.00;99.90
7129;DHT22;3606;52.930;8.644;2023-08-06T05:00:50;14.00;99.90
7129;DHT22;3606;52.930;8.644;2023-08-06T05:03:15;14.00;99.90
7129;DHT22;3606;52.930;8.644;2023-08-06T05:05:41;14.00;99.90
7129;DHT22;3606;52.930;8.644;2023-08-06T05:08:07;14.00;99.90
7129;DHT22;3606;52.930;8.644;2023-08-06T05:10:32;14.00;99.90
7129;DHT22;3606;52.930;8.644;2023-08-06T05:12:58;14.00;99.90
7129;DHT22;3606;52.930;8.644;2023-08-06T05:15:24;14.00;99.90
7129;DHT22;3606;52.930;8.644;2023-08-06T05:17:51;14.10;99.90
7129;DHT22;3606;52.930;8.644;2023-08-06T05:20:16;14.10;99.90
7129;DHT22;3606;52.930;8.644;2023-08-06T05:22:43;14.20;99.90
7129;DHT22;3606;52.930;8.644;2023-08-06T05:25:08;14.30;99.90
7129;DHT22;3606;52.930;8.644;2023-08-06T05:27:34;14.30;99.90
7129;DHT22;3606;52.930;8.644;2023-08-06T05:29:59;14.50;99.90
7129;DHT22;3606;52.930;8.644;2023-08-06T05:32:25;14.60;99.90
7129;DHT22;3606;52.930;8.644;2023-08-06T05:34:51;14.70;99.90
7129;DHT22;3606;52.930;8.644;2023-08-06T05:37:16;14.70;99.90
7129;DHT22;3606;52.930;8.644;2023-08-06T05:39:42;14.90;99.90
7129;DHT22;3606;52.930;8.644;2023-08-06T05:42:07;15.20;99.90
7129;DHT22;3606;52.930;8.644;2023-08-06T05:44:33;15.20;99.90
7129;DHT22;3606;52.930;8.644;2023-08-06T05:46:58;15.10;99.90
7129;DHT22;3606;52.930;8.644;2023-08-06T05:49:24;15.10;99.90
7129;DHT22;3606;52.930;8.644;2023-08-06T05:51:50;15.10;99.90
7129;DHT22;3606;52.930;8.644;2023-08-06T05:54:18;15.10;99.90
7129;DHT22;3606;52.930;8.644;2023-08-06T05:56:44;15.10;99.90
7129;DHT22;3606;52.930;8.644;2023-08-06T05:59:09;15.20;99.90
7129;DHT22;3606;52.930;8.644;2023-08-06T06:01:35;15.30;99.90
7129;DHT22;3606;52.930;8.644;2023-08-06T06:04:00;15.30;99.90
7129;DHT22;3606;52.930;8.644;2023-08-06T06:06:26;15.30;99.90
7129;DHT22;3606;52.930;8.644;2023-08-06T06:08:51;15.40;99.90
7129;DHT22;3606;52.930;8.644;2023-08-06T06:11:17;15.60;99.90
7129;DHT22;3606;52.930;8.644;2023-08-06T06:13:44;15.60;99.90
7129;DHT22;3606;52.930;8.644;2023-08-06T06:16:10;15.70;99.90
7129;DHT22;3606;52.930;8.644;2023-08-06T06:18:35;15.80;99.90
7129;DHT22;3606;52.930;8.644;2023-08-06T06:21:01;16.00;99.90
7129;DHT22;3606;52.930;8.644;2023-08-06T06:23:27;16.20;99.90
7129;DHT22;3606;52.930;8.644;2023-08-06T06:25:52;16.50;99.90
7129;DHT22;3606;52.930;8.644;2023-08-06T06:28:18;16.60;99.90
7129;DHT22;3606;52.930;8.644;2023-08-06T06:30:44;16.80;99.90
7129;DHT22;3606;52.930;8.644;2023-08-06T06:33:09;16.80;99.90
7129;DHT22;3606;52.930;8.644;2023-08-06T06:35:35;16.90;99.90
7129;DHT22;3606;52.930;8.644;2023-08-06T06:38:01;16.90;99.90
7129;DHT22;3606;52.930;8.644;2023-08-06T06:40:26;17.10;99.90
7129;DHT22;3606;52.930;8.644;2023-08-06T06:42:52;17.20;99.90
7129;DHT22;3606;52.930;8.644;2023-08-06T06:45:17;17.70;99.90
7129;DHT22;3606;52.930;8.644;2023-08-06T06:47:43;18.00;99.90
7129;DHT22;3606;52.930;8.644;2023-08-06T06:50:09;18.20;99.90
7129;DHT22;3606;52.930;8.644;2023-08-06T06:52:34;17.90;99.90
7129;DHT22;3606;52.930;8.644;2023-08-06T06:55:00;17.70;99.90
7129;DHT22;3606;52.930;8.644;2023-08-06T06:57:26;17.80;99.90
7129;DHT22;3606;52.930;8.644;2023-08-06T06:59:51;17.80;99.90
7129;DHT22;3606;52.930;8.644;2023-08-06T07:02:17;17.50;99.90
7129;DHT22;3606;52.930;8.644;2023-08-06T07:04:42;17.60;99.90
7129;DHT22;3606;52.930;8.644;2023-08-06T07:07:08;17.70;99.90
7129;DHT22;3606;52.930;8.644;2023-08-06T07:09:33;17.70;99.90
7129;DHT22;3606;52.930;8.644;2023-08-06T07:11:59;18.20;99.90
7129;DHT22;3606;52.930;8.644;2023-08-06T07:14:26;18.40;99.90
7129;DHT22;3606;52.930;8.644;2023-08-06T07:16:51;18.80;99.90
7129;DHT22;3606;52.930;8.644;2023-08-06T07:19:17;19.10;99.90
7129;DHT22;3606;52.930;8.644;2023-08-06T07:21:42;19.20;99.90
7129;DHT22;3606;52.930;8.644;2023-08-06T07:24:08;19.80;99.90
7129;DHT22;3606;52.930;8.644;2023-08-06T07:26:33;20.20;99.90
7129;DHT22;3606;52.930;8.644;2023-08-06T07:28:59;20.30;99.90
7129;DHT22;3606;52.930;8.644;2023-08-06T07:31:25;20.30;99.90
7129;DHT22;3606;52.930;8.644;2023-08-06T07:33:51;20.00;99.90
7129;DHT22;3606;52.930;8.644;2023-08-06T07:36:16;19.50;99.90
7129;DHT22;3606;52.930;8.644;2023-08-06T07:38:42;20.60;99.90
7129;DHT22;3606;52.930;8.644;2023-08-06T07:41:08;21.50;99.90
7129;DHT22;3606;52.930;8.644;2023-08-06T07:43:34;21.50;99.90
7129;DHT22;3606;52.930;8.644;2023-08-06T07:46:01;21.20;99.90
7129;DHT22;3606;52.930;8.644;2023-08-06T07:48:27;20.60;99.90
7129;DHT22;3606;52.930;8.644;2023-08-06T07:50:54;20.40;1.00
7129;DHT22;3606;52.930;8.644;2023-08-06T07:53:24;20.40;1.00
7129;DHT22;3606;52.930;8.644;2023-08-06T07:55:53;20.10;1.00
7129;DHT22;3606;52.930;8.644;2023-08-06T07:58:23;20.50;99.90
7129;DHT22;3606;52.930;8.644;2023-08-06T08:00:49;20.60;99.90
7129;DHT22;3606;52.930;8.644;2023-08-06T08:03:16;21.40;99.90
7129;DHT22;3606;52.930;8.644;2023-08-06T08:05:42;22.90;99.90
7129;DHT22;3606;52.930;8.644;2023-08-06T08:08:08;24.00;99.90
7129;DHT22;3606;52.930;8.644;2023-08-06T08:10:34;24.70;99.90
7129;DHT22;3606;52.930;8.644;2023-08-06T08:13:04;25.60;99.90
7129;DHT22;3606;52.930;8.644;2023-08-06T08:15:33;26.00;99.90
7129;DHT22;3606;52.930;8.644;2023-08-06T08:17:59;24.80;99.90
7129;DHT22;3606;52.930;8.644;2023-08-06T08:20:25;24.10;99.90
7129;DHT22;3606;52.930;8.644;2023-08-06T08:22:57;23.00;99.90
7129;DHT22;3606;52.930;8.644;2023-08-06T08:25:22;22.60;99.90
7129;DHT22;3606;52.930;8.644;2023-08-06T08:27:48;22.60;99.90
7129;DHT22;3606;52.930;8.644;2023-08-06T08:30:13;23.40;99.90
7129;DHT22;3606;52.930;8.644;2023-08-06T08:32:39;24.60;99.90
7129;DHT22;3606;52.930;8.644;2023-08-06T08:35:05;25.00;99.90
7129;DHT22;3606;52.930;8.644;2023-08-06T08:37:30;24.60;99.90
7129;DHT22;3606;52.930;8.644;2023-08-06T08:39:56;24.70;99.90
7129;DHT22;3606;52.930;8.644;2023-08-06T08:42:22;24.00;99.90
7129;DHT22;3606;52.930;8.644;2023-08-06T08:44:47;24.20;99.90
7129;DHT22;3606;52.930;8.644;2023-08-06T08:47:13;24.80;99.90
7129;DHT22;3606;52.930;8.644;2023-08-06T08:49:42;25.40;99.90
7129;DHT22;3606;52.930;8.644;2023-08-06T08:52:10;24.70;99.90
7129;DHT22;3606;52.930;8.644;2023-08-06T08:54:38;23.70;99.90
7129;DHT22;3606;52.930;8.644;2023-08-06T08:57:05;23.00;99.90
7129;DHT22;3606;52.930;8.644;2023-08-06T08:59:33;23.00;99.90
7129;DHT22;3606;52.930;8.644;2023-08-06T09:02:01;23.90;99.90
7129;DHT22;3606;52.930;8.644;2023-08-06T09:04:30;24.70;99.90
7129;DHT22;3606;52.930;8.644;2023-08-06T09:07:01;25.30;99.90
7129;DHT22;3606;52.930;8.644;2023-08-06T09:09:31;25.70;99.90
7129;DHT22;3606;52.930;8.644;2023-08-06T09:12:01;26.00;99.90
7129;DHT22;3606;52.930;8.644;2023-08-06T09:14:29;26.60;99.90
7129;DHT22;3606;52.930;8.644;2023-08-06T09:16:56;25.80;99.90
7129;DHT22;3606;52.930;8.644;2023-08-06T09:19:21;25.70;99.90
7129;DHT22;3606;52.930;8.644;2023-08-06T09:21:51;26.20;99.90
7129;DHT22;3606;52.930;8.644;2023-08-06T09:24:17;26.30;99.90
7129;DHT22;3606;52.930;8.644;2023-08-06T09:26:44;26.60;99.90
7129;DHT22;3606;52.930;8.644;2023-08-06T09:29:10;26.50;99.90
7129;DHT22;3606;52.930;8.644;2023-08-06T09:31:47;27.20;99.90
7129;DHT22;3606;52.930;8.644;2023-08-06T09:34:18;27.20;99.90
7129;DHT22;3606;52.930;8.644;2023-08-06T09:36:48;25.90;99.90
7129;DHT22;3606;52.930;8.644;2023-08-06T09:39:18;25.00;99.90
7129;DHT22;3606;52.930;8.644;2023-08-06T09:41:44;23.90;99.90
7129;DHT22;3606;52.930;8.644;2023-08-06T09:44:16;22.90;99.90
7129;DHT22;3606;52.930;8.644;2023-08-06T09:46:46;23.10;99.90
7129;DHT22;3606;52.930;8.644;2023-08-06T09:49:12;24.50;99.90
7129;DHT22;3606;52.930;8.644;2023-08-06T09:51:38;25.40;99.90
7129;DHT22;3606;52.930;8.644;2023-08-06T09:54:05;25.10;99.90
7129;DHT22;3606;52.930;8.644;2023-08-06T09:56:33;24.60;99.90
7129;DHT22;3606;52.930;8.644;2023-08-06T09:59:07;23.90;99.90
7129;DHT22;3606;52.930;8.644;2023-08-06T10:01:34;23.00;99.90
7129;DHT22;3606;52.930;8.644;2023-08-06T10:04:04;23.20;99.90
7129;DHT22;3606;52.930;8.644;2023-08-06T10:06:34;25.10;99.90
7129;DHT22;3606;52.930;8.644;2023-08-06T10:09:00;26.60;99.90
7129;DHT22;3606;52.930;8.644;2023-08-06T10:11:25;27.90;99.90
7129;DHT22;3606;52.930;8.644;2023-08-06T10:14:04;27.20;99.90
7129;DHT22;3606;52.930;8.644;2023-08-06T10:16:32;27.00;99.90
7129;DHT22;3606;52.930;8.644;2023-08-06T10:18:58;27.50;99.90
7129;DHT22;3606;52.930;8.644;2023-08-06T10:21:25;26.80;99.90
7129;DHT22;3606;52.930;8.644;2023-08-06T10:23:56;25.80;99.90
7129;DHT22;3606;52.930;8.644;2023-08-06T10:26:26;26.80;99.90
7129;DHT22;3606;52.930;8.644;2023-08-06T10:28:52;28.10;99.90
7129;DHT22;3606;52.930;8.644;2023-08-06T10:31:18;27.40;99.90
7129;DHT22;3606;52.930;8.644;2023-08-06T10:33:45;25.60;99.90
7129;DHT22;3606;52.930;8.644;2023-08-06T10:36:12;24.80;99.90
7129;DHT22;3606;52.930;8.644;2023-08-06T10:38:49;26.10;99.90
7129;DHT22;3606;52.930;8.644;2023-08-06T10:41:28;27.70;99.90
7129;DHT22;3606;52.930;8.644;2023-08-06T10:44:07;29.70;99.90
7129;DHT22;3606;52.930;8.644;2023-08-06T10:46:36;30.90;99.90
7129;DHT22;3606;52.930;8.644;2023-08-06T10:49:03;29.70;99.90
7129;DHT22;3606;52.930;8.644;2023-08-06T10:51:28;28.60;99.90
7129;DHT22;3606;52.930;8.644;2023-08-06T10:53:54;28.60;14.50
7129;DHT22;3606;52.930;8.644;2023-08-06T10:56:22;28.40;1.00
7129;DHT22;3606;52.930;8.644;2023-08-06T10:58:50;28.70;99.90
7129;DHT22;3606;52.930;8.644;2023-08-06T11:01:16;28.80;1.00
7129;DHT22;3606;52.930;8.644;2023-08-06T11:03:42;28.80;1.00
7129;DHT22;3606;52.930;8.644;2023-08-06T11:06:08;28.10;99.90
7129;DHT22;3606;52.930;8.644;2023-08-06T11:08:40;28.20;1.00
7129;DHT22;3606;52.930;8.644;2023-08-06T11:11:13;28.70;1.00
7129;DHT22;3606;52.930;8.644;2023-08-06T11:13:43;29.40;99.90
7129;DHT22;3606;52.930;8.644;2023-08-06T11:16:12;29.20;1.00
7129;DHT22;3606;52.930;8.644;2023-08-06T11:18:40;28.20;1.00
7129;DHT22;3606;52.930;8.644;2023-08-06T11:21:05;27.60;97.70
7129;DHT22;3606;52.930;8.644;2023-08-06T11:23:31;28.30;99.90
7129;DHT22;3606;52.930;8.644;2023-08-06T11:25:57;29.70;1.00
7129;DHT22;3606;52.930;8.644;2023-08-06T11:28:23;30.10;99.90
7129;DHT22;3606;52.930;8.644;2023-08-06T11:30:50;29.40;99.90
7129;DHT22;3606;52.930;8.644;2023-08-06T11:33:25;28.70;1.00
7129;DHT22;3606;52.930;8.644;2023-08-06T11:35:52;29.20;99.90
7129;DHT22;3606;52.930;8.644;2023-08-06T11:38:18;29.40;1.00
7129;DHT22;3606;52.930;8.644;2023-08-06T11:40:44;29.20;39.20
7129;DHT22;3606;52.930;8.644;2023-08-06T11:43:11;29.10;99.90
7129;DHT22;3606;52.930;8.644;2023-08-06T11:45:37;28.80;99.90
7129;DHT22;3606;52.930;8.644;2023-08-06T11:48:03;28.80;1.00
7129;DHT22;3606;52.930;8.644;2023-08-06T11:50:29;28.70;99.90
7129;DHT22;3606;52.930;8.644;2023-08-06T11:53:00;29.00;1.00
7129;DHT22;3606;52.930;8.644;2023-08-06T11:55:27;29.70;31.30
7129;DHT22;3606;52.930;8.644;2023-08-06T11:57:54;29.70;1.80
7129;DHT22;3606;52.930;8.644;2023-08-06T12:00:20;28.20;99.90
7129;DHT22;3606;52.930;8.644;2023-08-06T12:02:49;26.60;99.90
7129;DHT22;3606;52.930;8.644;2023-08-06T12:05:19;25.70;99.90
7129;DHT22;3606;52.930;8.644;2023-08-06T12:07:52;25.10;1.00
7129;DHT22;3606;52.930;8.644;2023-08-06T12:10:19;24.70;1.00
7129;DHT22;3606;52.930;8.644;2023-08-06T12:12:45;24.70;1.00
7129;DHT22;3606;52.930;8.644;2023-08-06T12:15:10;24.50;8.00
7129;DHT22;3606;52.930;8.644;2023-08-06T12:17:37;24.40;1.00
7129;DHT22;3606;52.930;8.644;2023-08-06T12:20:04;25.40;1.00
7129;DHT22;3606;52.930;8.644;2023-08-06T12:22:30;26.10;99.90
7129;DHT22;3606;52.930;8.644;2023-08-06T12:25:00;25.40;99.90
7129;DHT22;3606;52.930;8.644;2023-08-06T12:27:26;25.10;99.90
7129;DHT22;3606;52.930;8.644;2023-08-06T12:29:52;25.40;1.00
7129;DHT22;3606;52.930;8.644;2023-08-06T12:32:17;25.80;99.90
7129;DHT22;3606;52.930;8.644;2023-08-06T12:34:43;25.30;99.90
7129;DHT22;3606;52.930;8.644;2023-08-06T12:37:09;24.60;1.00
7129;DHT22;3606;52.930;8.644;2023-08-06T12:39:35;24.50;1.00
7129;DHT22;3606;52.930;8.644;2023-08-06T12:42:04;25.20;99.90
7129;DHT22;3606;52.930;8.644;2023-08-06T12:44:30;26.40;99.90
7129;DHT22;3606;52.930;8.644;2023-08-06T12:46:55;27.10;99.90
7129;DHT22;3606;52.930;8.644;2023-08-06T12:49:22;26.70;99.90
7129;DHT22;3606;52.930;8.644;2023-08-06T12:51:49;25.90;99.90
7129;DHT22;3606;52.930;8.644;2023-08-06T12:54:17;25.10;99.90
7129;DHT22;3606;52.930;8.644;2023-08-06T12:56:44;24.40;99.90
7129;DHT22;3606;52.930;8.644;2023-08-06T12:59:10;23.80;99.90
7129;DHT22;3606;52.930;8.644;2023-08-06T13:01:37;23.20;99.90
7129;DHT22;3606;52.930;8.644;2023-08-06T13:04:03;23.00;99.90
7129;DHT22;3606;52.930;8.644;2023-08-06T13:06:28;22.80;99.90
7129;DHT22;3606;52.930;8.644;2023-08-06T13:08:54;22.80;99.90
7129;DHT22;3606;52.930;8.644;2023-08-06T13:11:20;22.70;99.90
7129;DHT22;3606;52.930;8.644;2023-08-06T13:13:45;22.70;99.90
7129;DHT22;3606;52.930;8.644;2023-08-06T13:16:11;22.60;99.90
7129;DHT22;3606;52.930;8.644;2023-08-06T13:18:36;22.60;99.90
7129;DHT22;3606;52.930;8.644;2023-08-06T13:21:02;22.70;99.90
7129;DHT22;3606;52.930;8.644;2023-08-06T13:23:27;22.90;99.90
7129;DHT22;3606;52.930;8.644;2023-08-06T13:25:53;23.20;99.90
7129;DHT22;3606;52.930;8.644;2023-08-06T13:28:19;23.10;99.90
7129;DHT22;3606;52.930;8.644;2023-08-06T13:30:45;24.00;99.90
7129;DHT22;3606;52.930;8.644;2023-08-06T13:33:11;26.10;99.90
7129;DHT22;3606;52.930;8.644;2023-08-06T13:35:37;26.70;99.90
7129;DHT22;3606;52.930;8.644;2023-08-06T13:38:03;26.40;99.90
7129;DHT22;3606;52.930;8.644;2023-08-06T13:40:31;26.90;99.90
7129;DHT22;3606;52.930;8.644;2023-08-06T13:42:57;26.70;99.90
7129;DHT22;3606;52.930;8.644;2023-08-06T13:45:23;27.10;99.90
7129;DHT22;3606;52.930;8.644;2023-08-06T13:47:49;27.50;99.90
7129;DHT22;3606;52.930;8.644;2023-08-06T13:50:14;27.70;99.90
7129;DHT22;3606;52.930;8.644;2023-08-06T13:52:40;28.20;99.90
7129;DHT22;3606;52.930;8.644;2023-08-06T13:55:06;27.90;99.90
7129;DHT22;3606;52.930;8.644;2023-08-06T13:57:33;27.10;99.90
7129;DHT22;3606;52.930;8.644;2023-08-06T14:00:01;27.10;99.90
7129;DHT22;3606;52.930;8.644;2023-08-06T14:02:27;26.30;99.90
7129;DHT22;3606;52.930;8.644;2023-08-06T14:04:53;27.00;99.90
7129;DHT22;3606;52.930;8.644;2023-08-06T14:07:19;27.80;99.90
7129;DHT22;3606;52.930;8.644;2023-08-06T14:09:45;27.50;99.90
7129;DHT22;3606;52.930;8.644;2023-08-06T14:12:12;26.10;99.90
7129;DHT22;3606;52.930;8.644;2023-08-06T14:14:38;24.90;99.90
7129;DHT22;3606;52.930;8.644;2023-08-06T14:17:03;25.60;99.90
7129;DHT22;3606;52.930;8.644;2023-08-06T14:19:29;26.50;99.90
7129;DHT22;3606;52.930;8.644;2023-08-06T14:21:55;26.40;99.90
7129;DHT22;3606;52.930;8.644;2023-08-06T14:24:21;25.50;99.90
7129;DHT22;3606;52.930;8.644;2023-08-06T14:26:46;24.60;99.90
7129;DHT22;3606;52.930;8.644;2023-08-06T14:29:12;25.10;99.90
7129;DHT22;3606;52.930;8.644;2023-08-06T14:31:39;26.00;99.90
7129;DHT22;3606;52.930;8.644;2023-08-06T14:34:05;26.80;99.90
7129;DHT22;3606;52.930;8.644;2023-08-06T14:36:30;27.40;99.90
7129;DHT22;3606;52.930;8.644;2023-08-06T14:38:56;26.70;99.90
7129;DHT22;3606;52.930;8.644;2023-08-06T14:41:21;25.40;99.90
7129;DHT22;3606;52.930;8.644;2023-08-06T14:43:47;25.80;99.90
7129;DHT22;3606;52.930;8.644;2023-08-06T14:46:12;25.50;99.90
7129;DHT22;3606;52.930;8.644;2023-08-06T14:48:38;26.60;99.90
7129;DHT22;3606;52.930;8.644;2023-08-06T14:51:04;27.30;99.90
7129;DHT22;3606;52.930;8.644;2023-08-06T14:53:30;27.30;99.90
7129;DHT22;3606;52.930;8.644;2023-08-06T14:55:55;25.60;99.90
7129;DHT22;3606;52.930;8.644;2023-08-06T14:58:21;24.20;99.90
7129;DHT22;3606;52.930;8.644;2023-08-06T15:00:47;24.00;99.90
7129;DHT22;3606;52.930;8.644;2023-08-06T15:03:12;25.30;99.90
7129;DHT22;3606;52.930;8.644;2023-08-06T15:05:38;26.30;1.00
7129;DHT22;3606;52.930;8.644;2023-08-06T15:08:03;27.20;99.90
7129;DHT22;3606;52.930;8.644;2023-08-06T15:10:29;27.80;99.90
7129;DHT22;3606;52.930;8.644;2023-08-06T15:12:55;27.50;99.90
7129;DHT22;3606;52.930;8.644;2023-08-06T15:15:20;26.80;99.90
7129;DHT22;3606;52.930;8.644;2023-08-06T15:17:47;25.80;99.90
7129;DHT22;3606;52.930;8.644;2023-08-06T15:20:13;24.70;99.90
7129;DHT22;3606;52.930;8.644;2023-08-06T15:22:39;23.60;99.90
7129;DHT22;3606;52.930;8.644;2023-08-06T15:25:05;23.10;99.90
7129;DHT22;3606;52.930;8.644;2023-08-06T15:27:30;24.20;99.90
7129;DHT22;3606;52.930;8.644;2023-08-06T15:29:57;25.30;99.90
7129;DHT22;3606;52.930;8.644;2023-08-06T15:32:23;26.30;99.90
7129;DHT22;3606;52.930;8.644;2023-08-06T15:34:50;26.00;99.90
7129;DHT22;3606;52.930;8.644;2023-08-06T15:37:16;25.40;99.90
7129;DHT22;3606;52.930;8.644;2023-08-06T15:39:41;25.00;99.90
7129;DHT22;3606;52.930;8.644;2023-08-06T15:42:07;24.50;99.90
7129;DHT22;3606;52.930;8.644;2023-08-06T15:44:32;23.70;99.90
7129;DHT22;3606;52.930;8.644;2023-08-06T15:46:58;23.00;99.90
7129;DHT22;3606;52.930;8.644;2023-08-06T15:49:23;22.50;99.90
7129;DHT22;3606;52.930;8.644;2023-08-06T15:51:49;22.00;99.90
7129;DHT22;3606;52.930;8.644;2023-08-06T15:54:15;21.50;99.90
7129;DHT22;3606;52.930;8.644;2023-08-06T15:56:41;21.30;99.90
7129;DHT22;3606;52.930;8.644;2023-08-06T15:59:32;21.30;99.90
7129;DHT22;3606;52.930;8.644;2023-08-06T16:01:59;21.20;99.90
7129;DHT22;3606;52.930;8.644;2023-08-06T16:04:28;21.10;99.90